createdAt,value
2023-03-19T00:02:17.406Z,10.70
2023-03-19T00:04:46.366Z,10.70
2023-03-19T00:07:16.229Z,10.60
2023-03-19T00:09:44.118Z,10.50
2023-03-19T00:12:12.698Z,10.50
2023-03-19T00:14:40.767Z,10.40
2023-03-19T00:17:08.851Z,10.40
2023-03-19T00:19:37.097Z,10.40
2023-03-19T00:22:05.168Z,10.40
2023-03-19T00:24:35.296Z,10.30
2023-03-19T00:27:03.663Z,10.10
2023-03-19T00:29:32.006Z,10.20
2023-03-19T00:31:59.844Z,10.10
2023-03-19T00:34:28.205Z,10.10
2023-03-19T00:36:56.477Z,9.90
2023-03-19T00:39:24.399Z,9.80
2023-03-19T00:41:53.590Z,9.70
2023-03-19T00:44:21.688Z,9.60
2023-03-19T00:46:49.580Z,9.50
2023-03-19T00:49:17.439Z,9.50
2023-03-19T00:51:45.859Z,9.50
2023-03-19T00:54:13.900Z,9.60
2023-03-19T00:56:41.758Z,9.60
2023-03-19T00:59:11.109Z,9.50
2023-03-19T01:01:39.158Z,9.50
2023-03-19T01:04:07.081Z,9.50
2023-03-19T01:06:35.075Z,9.60
2023-03-19T01:09:05.253Z,9.70
2023-03-19T01:11:33.094Z,9.70
2023-03-19T01:14:01.330Z,9.70
2023-03-19T01:16:30.670Z,9.60
2023-03-19T01:18:58.934Z,9.50
2023-03-19T01:21:27.234Z,9.50
2023-03-19T01:23:55.060Z,9.40
2023-03-19T01:26:23.102Z,9.40
2023-03-19T01:28:50.964Z,9.30
2023-03-19T01:31:18.960Z,9.30
2023-03-19T01:33:48.241Z,9.30
2023-03-19T01:36:16.115Z,9.40
2023-03-19T01:38:43.940Z,9.40
2023-03-19T01:41:11.781Z,9.40
2023-03-19T01:43:40.138Z,9.40
2023-03-19T01:46:15.056Z,9.30
2023-03-19T01:48:46.568Z,9.30
2023-03-19T01:51:19.682Z,9.20
2023-03-19T01:53:52.108Z,9.30
2023-03-19T01:56:23.438Z,9.30
2023-03-19T01:58:54.486Z,9.10
2023-03-19T02:01:23.055Z,9.00
2023-03-19T02:03:51.727Z,8.90
2023-03-19T02:06:22.761Z,8.90
2023-03-19T02:08:52.403Z,8.90
2023-03-19T02:11:21.852Z,8.80
2023-03-19T02:13:49.797Z,8.90
2023-03-19T02:16:18.063Z,8.80
2023-03-19T02:18:46.089Z,8.80
2023-03-19T02:21:17.526Z,8.80
2023-03-19T02:23:52.429Z,8.90
2023-03-19T02:26:24.256Z,9.10
2023-03-19T02:28:54.056Z,9.00
2023-03-19T02:31:23.234Z,9.00
2023-03-19T02:34:34.070Z,9.10
2023-03-19T02:37:04.854Z,9.10
2023-03-19T02:39:35.823Z,9.10
2023-03-19T02:42:06.635Z,9.00
2023-03-19T02:44:34.532Z,9.00
2023-03-19T02:47:02.449Z,9.00
2023-03-19T02:49:30.359Z,8.90
2023-03-19T02:51:58.298Z,8.90
2023-03-19T02:54:26.385Z,8.80
2023-03-19T02:56:54.583Z,9.10
2023-03-19T02:59:23.772Z,9.30
2023-03-19T03:01:52.271Z,9.30
2023-03-19T03:04:20.219Z,9.50
2023-03-19T03:06:48.181Z,9.60
2023-03-19T03:09:16.282Z,9.60
2023-03-19T03:11:44.149Z,9.60
2023-03-19T03:14:12.540Z,9.60
2023-03-19T03:16:41.801Z,9.60
2023-03-19T03:19:09.720Z,9.60
2023-03-19T03:21:37.593Z,9.70
2023-03-19T03:24:05.925Z,9.70
2023-03-19T03:26:34.699Z,9.70
2023-03-19T03:29:02.518Z,9.80
2023-03-19T03:31:30.488Z,9.80
2023-03-19T03:33:59.698Z,9.80
2023-03-19T03:36:28.037Z,9.80
2023-03-19T03:38:56.123Z,9.70
2023-03-19T03:41:24.058Z,9.60
2023-03-19T03:43:52.351Z,9.60
2023-03-19T03:46:20.338Z,9.50
2023-03-19T03:48:49.300Z,9.50
2023-03-19T03:51:18.646Z,9.50
2023-03-19T03:53:46.542Z,9.50
2023-03-19T03:56:14.617Z,9.50
2023-03-19T03:58:42.641Z,9.40
2023-03-19T04:01:15.483Z,9.30
2023-03-19T04:03:43.345Z,9.20
2023-03-19T04:06:14.997Z,9.20
2023-03-19T04:08:44.152Z,9.20
2023-03-19T04:11:12.493Z,9.20
2023-03-19T04:13:41.429Z,9.30
2023-03-19T04:16:10.945Z,9.30
2023-03-19T04:18:39.756Z,9.40
2023-03-19T04:21:08.890Z,9.50
2023-03-19T04:23:36.831Z,9.50
2023-03-19T04:26:07.861Z,9.50
2023-03-19T04:28:36.254Z,9.50
2023-03-19T04:31:06.617Z,9.60
2023-03-19T04:33:35.564Z,9.70
2023-03-19T04:36:04.017Z,9.80
2023-03-19T04:38:31.922Z,9.70
2023-03-19T04:40:59.892Z,9.70
2023-03-19T04:43:29.301Z,9.60
2023-03-19T04:45:57.242Z,9.60
2023-03-19T04:48:25.973Z,9.60
2023-03-19T04:50:56.915Z,9.60
2023-03-19T04:53:25.090Z,9.70
2023-03-19T04:55:53.066Z,9.70
2023-03-19T04:58:21.407Z,9.60
2023-03-19T05:00:50.595Z,9.60
2023-03-19T05:03:18.493Z,9.60
2023-03-19T05:05:46.502Z,9.60
2023-03-19T05:08:14.441Z,9.50
2023-03-19T05:10:42.588Z,9.50
2023-03-19T05:13:10.500Z,9.40
2023-03-19T05:15:38.993Z,9.40
2023-03-19T05:18:09.226Z,9.40
2023-03-19T05:20:37.259Z,9.50
2023-03-19T05:23:06.305Z,9.50
2023-03-19T05:25:36.225Z,9.40
2023-03-19T05:28:04.232Z,9.50
2023-03-19T05:30:33.334Z,9.60
2023-03-19T05:33:02.151Z,9.70
2023-03-19T05:35:32.098Z,9.80
2023-03-19T05:38:00.098Z,9.70
2023-03-19T05:40:28.258Z,9.70
2023-03-19T05:42:56.131Z,9.60
2023-03-19T05:45:24.080Z,9.60
2023-03-19T05:47:52.161Z,9.60
2023-03-19T05:50:21.959Z,9.60
2023-03-19T05:52:51.332Z,9.60
2023-03-19T05:55:19.413Z,9.50
2023-03-19T05:57:47.693Z,9.50
2023-03-19T06:00:16.545Z,9.50
2023-03-19T06:02:45.304Z,9.50
2023-03-19T06:05:13.149Z,9.60
2023-03-19T06:07:41.080Z,9.70
2023-03-19T06:10:12.366Z,9.70
2023-03-19T06:12:40.216Z,9.60
2023-03-19T06:15:09.259Z,9.50
2023-03-19T06:17:37.748Z,9.40
2023-03-19T06:20:06.550Z,9.50
2023-03-19T06:22:34.390Z,9.40
2023-03-19T06:25:02.305Z,9.40
2023-03-19T06:27:31.797Z,9.40
2023-03-19T06:29:59.960Z,9.60
2023-03-19T06:32:27.883Z,9.60
2023-03-19T06:34:56.782Z,9.70
2023-03-19T06:37:24.866Z,9.80
2023-03-19T06:39:54.698Z,9.90
2023-03-19T06:42:22.750Z,9.90
2023-03-19T06:44:53.744Z,10.10
2023-03-19T06:47:21.859Z,10.10
2023-03-19T06:49:49.775Z,10.10
2023-03-19T06:52:17.972Z,10.10
2023-03-19T06:54:45.973Z,10.10
2023-03-19T06:57:13.778Z,10.20
2023-03-19T06:59:42.669Z,10.20
2023-03-19T07:02:13.258Z,10.20
2023-03-19T07:04:41.043Z,10.30
2023-03-19T07:07:09.116Z,10.30
2023-03-19T07:09:37.101Z,10.40
2023-03-19T07:12:05.887Z,10.40
2023-03-19T07:14:33.797Z,10.50
2023-03-19T07:17:01.740Z,10.50
2023-03-19T07:19:31.266Z,10.40
2023-03-19T07:21:59.145Z,10.50
2023-03-19T07:24:27.210Z,10.40
2023-03-19T07:26:55.574Z,10.40
2023-03-19T07:29:23.551Z,10.40
2023-03-19T07:31:51.609Z,10.50
2023-03-19T07:34:19.526Z,10.50
2023-03-19T07:36:48.978Z,10.50
2023-03-19T07:39:16.894Z,10.60
2023-03-19T07:41:47.625Z,10.70
2023-03-19T07:44:15.947Z,10.80
2023-03-19T07:46:44.154Z,10.90
2023-03-19T07:49:14.278Z,11.00
2023-03-19T07:51:42.307Z,11.00
2023-03-19T07:54:11.605Z,11.10
2023-03-19T07:56:39.417Z,11.20
2023-03-19T07:59:07.272Z,11.20
2023-03-19T08:01:35.341Z,11.30
2023-03-19T08:04:03.264Z,11.50
2023-03-19T08:06:31.394Z,11.50
2023-03-19T08:08:59.262Z,11.60
2023-03-19T08:11:30.080Z,11.60
2023-03-19T08:13:58.068Z,11.70
2023-03-19T08:16:26.256Z,11.80
2023-03-19T08:18:54.088Z,11.90
2023-03-19T08:21:22.378Z,12.00
2023-03-19T08:23:50.735Z,12.10
2023-03-19T08:26:20.588Z,12.20
2023-03-19T08:28:49.756Z,12.30
2023-03-19T08:31:17.647Z,12.40
2023-03-19T08:33:45.708Z,12.60
2023-03-19T08:36:15.341Z,12.70
2023-03-19T08:38:43.773Z,12.80
2023-03-19T08:41:12.059Z,13.00
2023-03-19T08:43:39.932Z,13.10
2023-03-19T08:46:09.144Z,13.30
2023-03-19T08:48:38.736Z,13.40
2023-03-19T08:51:07.624Z,13.50
2023-03-19T08:53:35.514Z,13.70
2023-03-19T08:56:05.469Z,13.70
2023-03-19T08:58:33.525Z,13.80
2023-03-19T09:01:07.565Z,13.90
2023-03-19T09:03:37.328Z,14.00
2023-03-19T09:06:07.883Z,14.10
2023-03-19T09:08:37.103Z,14.10
2023-03-19T09:11:06.145Z,14.30
2023-03-19T09:13:34.292Z,14.40
2023-03-19T09:16:02.435Z,14.40
2023-03-19T09:18:30.395Z,14.60
2023-03-19T09:20:59.726Z,14.80
2023-03-19T09:23:28.375Z,15.10
2023-03-19T09:25:56.345Z,15.40
2023-03-19T09:28:24.469Z,15.70
2023-03-19T09:30:52.826Z,15.70
2023-03-19T09:33:22.093Z,15.60
2023-03-19T09:35:54.728Z,15.60
2023-03-19T09:38:24.141Z,15.60
2023-03-19T09:41:04.233Z,15.70
2023-03-19T09:43:53.045Z,15.70
2023-03-19T09:46:24.545Z,15.60
2023-03-19T09:48:56.012Z,15.60
2023-03-19T09:51:34.864Z,15.60
2023-03-19T09:54:09.495Z,15.70
2023-03-19T09:56:37.448Z,15.70
2023-03-19T09:59:05.344Z,15.80
2023-03-19T10:01:37.218Z,16.00
2023-03-19T10:04:31.582Z,16.30
2023-03-19T10:07:09.636Z,16.50
2023-03-19T10:09:49.129Z,16.50
2023-03-19T10:12:29.258Z,16.90
2023-03-19T10:15:11.417Z,17.40
2023-03-19T10:17:43.253Z,17.80
2023-03-19T10:20:18.236Z,18.00
2023-03-19T10:22:48.666Z,18.30
2023-03-19T10:25:23.362Z,18.60
2023-03-19T10:27:57.772Z,18.30
2023-03-19T10:30:26.989Z,18.20
2023-03-19T10:33:03.316Z,18.10
2023-03-19T10:35:42.264Z,18.20
2023-03-19T10:38:23.008Z,18.00
2023-03-19T10:41:07.025Z,17.70
2023-03-19T10:43:35.725Z,17.70
2023-03-19T10:46:03.741Z,17.70
2023-03-19T10:48:32.478Z,17.70
2023-03-19T10:51:01.808Z,17.70
2023-03-19T10:53:34.681Z,17.50
2023-03-19T10:56:08.776Z,17.40
2023-03-19T10:58:37.875Z,17.30
2023-03-19T11:01:08.439Z,17.40
2023-03-19T11:03:38.391Z,17.40
2023-03-19T11:06:19.020Z,17.50
2023-03-19T11:08:55.357Z,17.50
2023-03-19T11:11:34.564Z,17.30
2023-03-19T11:14:10.217Z,17.20
2023-03-19T11:16:55.973Z,17.20
2023-03-19T11:19:26.337Z,17.30
2023-03-19T11:22:03.795Z,17.30
2023-03-19T11:24:37.349Z,17.10
2023-03-19T11:27:07.878Z,17.00
2023-03-19T11:29:41.890Z,17.00
2023-03-19T11:32:23.924Z,16.90
2023-03-19T11:34:57.486Z,16.90
2023-03-19T11:37:33.656Z,16.90
2023-03-19T11:40:13.145Z,16.80
2023-03-19T11:43:07.110Z,16.80
2023-03-19T11:45:42.245Z,16.80
2023-03-19T11:48:27.293Z,16.80
2023-03-19T11:51:00.558Z,16.70
2023-03-19T11:53:32.084Z,16.70
2023-03-19T11:56:15.462Z,16.70
2023-03-19T11:59:06.592Z,16.70
2023-03-19T12:02:10.463Z,16.60
2023-03-19T12:05:00.373Z,16.70
2023-03-19T12:07:34.021Z,16.60
2023-03-19T12:10:21.979Z,16.60
2023-03-19T12:12:58.238Z,16.60
2023-03-19T12:15:32.536Z,16.60
2023-03-19T12:18:11.210Z,16.40
2023-03-19T12:20:53.347Z,16.30
2023-03-19T12:23:36.105Z,16.20
2023-03-19T12:26:07.011Z,16.10
2023-03-19T12:28:37.521Z,16.10
2023-03-19T12:31:37.828Z,15.80
2023-03-19T12:34:23.947Z,15.70
2023-03-19T12:36:55.794Z,15.60
2023-03-19T12:39:27.460Z,15.50
2023-03-19T12:41:57.223Z,15.60
2023-03-19T12:44:29.800Z,15.50
2023-03-19T12:47:04.541Z,15.40
2023-03-19T12:49:38.898Z,15.30
2023-03-19T12:52:16.325Z,15.20
2023-03-19T12:54:49.782Z,15.10
2023-03-19T12:57:25.914Z,15.00
2023-03-19T12:59:59.936Z,14.90
2023-03-19T13:02:34.818Z,14.70
2023-03-19T13:05:08.940Z,14.60
2023-03-19T13:07:52.491Z,14.60
2023-03-19T13:10:22.248Z,14.40
2023-03-19T13:12:52.675Z,14.20
2023-03-19T13:15:28.775Z,14.00
2023-03-19T13:18:09.617Z,13.90
2023-03-19T13:20:58.019Z,13.70
2023-03-19T13:23:30.368Z,13.60
2023-03-19T13:26:00.194Z,13.50
2023-03-19T13:28:30.933Z,13.40
2023-03-19T13:31:03.971Z,13.30
2023-03-19T13:33:35.313Z,13.30
2023-03-19T13:36:05.929Z,13.30
2023-03-19T13:38:40.593Z,13.30
2023-03-19T13:42:15.300Z,13.30
2023-03-19T13:44:50.380Z,13.30
2023-03-19T13:47:43.504Z,13.30
2023-03-19T13:50:51.945Z,13.30
2023-03-19T13:53:38.950Z,13.40
2023-03-19T13:56:26.284Z,13.30
2023-03-19T13:59:26.967Z,13.40
2023-03-19T14:01:57.191Z,13.50
2023-03-19T14:04:29.366Z,13.50
2023-03-19T14:06:59.130Z,13.60
2023-03-19T14:09:34.341Z,13.70
2023-03-19T14:12:31.834Z,13.80
2023-03-19T14:15:04.718Z,13.90
2023-03-19T14:17:36.750Z,14.10
2023-03-19T14:20:32.019Z,14.20
2023-03-19T14:23:36.144Z,14.30
2023-03-19T14:26:12.360Z,14.40
2023-03-19T14:28:50.907Z,14.60
2023-03-19T14:31:24.652Z,14.70
2023-03-19T14:34:00.445Z,14.90
2023-03-19T14:36:29.921Z,15.10
2023-03-19T14:39:03.174Z,15.10
2023-03-19T14:41:36.321Z,15.10
2023-03-19T14:44:44.932Z,15.30
2023-03-19T14:47:41.253Z,15.30
2023-03-19T14:50:51.292Z,15.40
2023-03-19T14:53:25.906Z,15.50
2023-03-19T14:55:54.712Z,15.80
2023-03-19T14:58:23.013Z,16.10
2023-03-19T15:00:53.232Z,16.10
2023-03-19T15:03:28.345Z,16.20
2023-03-19T15:05:59.861Z,16.30
2023-03-19T15:08:36.085Z,16.30
2023-03-19T15:11:21.523Z,16.50
2023-03-19T15:14:17.481Z,16.50
2023-03-19T15:16:55.583Z,16.40
2023-03-19T15:19:27.058Z,16.30
2023-03-19T15:22:05.422Z,16.40
2023-03-19T15:24:36.150Z,16.40
2023-03-19T15:27:14.849Z,16.40
2023-03-19T15:29:42.714Z,16.30
2023-03-19T15:32:11.349Z,16.00
2023-03-19T15:34:42.245Z,15.70
2023-03-19T15:37:14.161Z,15.70
2023-03-19T15:39:49.320Z,15.70
2023-03-19T15:42:18.233Z,15.50
2023-03-19T15:44:49.745Z,15.40
2023-03-19T15:47:22.862Z,15.30
2023-03-19T15:49:56.912Z,15.20
2023-03-19T15:52:27.258Z,15.30
2023-03-19T15:54:57.379Z,15.20
2023-03-19T15:57:26.416Z,15.20
2023-03-19T15:59:57.223Z,15.20
2023-03-19T16:02:28.557Z,15.30
2023-03-19T16:05:20.574Z,15.30
2023-03-19T16:07:46.030Z,15.30
2023-03-19T16:10:40.896Z,15.40
2023-03-19T16:13:30.535Z,15.40
2023-03-19T16:16:04.007Z,15.30
2023-03-19T16:18:42.193Z,15.30
2023-03-19T16:21:14.668Z,15.10
2023-03-19T16:23:45.126Z,15.00
2023-03-19T16:26:37.084Z,15.00
2023-03-19T16:29:16.796Z,14.90
2023-03-19T16:31:46.932Z,14.90
2023-03-19T16:34:38.056Z,14.80
2023-03-19T16:37:43.134Z,14.80
2023-03-19T16:40:42.904Z,14.80
2023-03-19T16:43:19.546Z,14.90
2023-03-19T16:45:52.072Z,14.80
2023-03-19T16:48:20.059Z,14.70
2023-03-19T16:50:48.756Z,14.70
2023-03-19T16:53:24.167Z,14.60
2023-03-19T16:55:52.721Z,14.60
2023-03-19T16:58:28.842Z,14.50
2023-03-19T17:00:56.732Z,14.50
2023-03-19T17:03:26.010Z,14.50
2023-03-19T17:05:53.938Z,14.40
2023-03-19T17:08:23.273Z,14.30
2023-03-19T17:10:53.055Z,14.30
2023-03-19T17:13:28.064Z,14.20
2023-03-19T17:15:58.268Z,14.10
2023-03-19T17:18:29.101Z,14.10
2023-03-19T17:21:01.271Z,14.00
2023-03-19T17:23:30.547Z,14.00
2023-03-19T17:25:59.142Z,13.90
2023-03-19T17:28:28.426Z,13.90
2023-03-19T17:30:56.343Z,13.80
2023-03-19T17:33:26.613Z,13.80
2023-03-19T17:35:56.041Z,13.70
2023-03-19T17:38:26.800Z,13.70
2023-03-19T17:40:54.672Z,13.70
2023-03-19T17:43:22.474Z,13.60
2023-03-19T17:45:51.857Z,13.50
2023-03-19T17:48:22.588Z,13.50
2023-03-19T17:50:51.454Z,13.40
2023-03-19T17:53:19.674Z,13.40
2023-03-19T17:55:48.169Z,13.30
2023-03-19T17:58:18.898Z,13.30
2023-03-19T18:00:48.106Z,13.30
2023-03-19T18:03:19.497Z,13.20
2023-03-19T18:05:47.545Z,13.20
2023-03-19T18:08:17.441Z,13.10
2023-03-19T18:10:45.760Z,13.00
2023-03-19T18:13:13.733Z,13.00
2023-03-19T18:15:44.150Z,12.90
2023-03-19T18:18:18.833Z,12.90
2023-03-19T18:20:47.657Z,12.80
2023-03-19T18:23:16.698Z,12.80
2023-03-19T18:25:45.873Z,12.70
2023-03-19T18:28:13.831Z,12.70
2023-03-19T18:30:42.959Z,12.60
2023-03-19T18:33:16.766Z,12.60
2023-03-19T18:35:47.664Z,12.50
2023-03-19T18:38:18.504Z,12.50
2023-03-19T18:40:47.118Z,12.40
2023-03-19T18:43:16.361Z,12.40
2023-03-19T18:45:45.470Z,12.40
2023-03-19T18:48:20.904Z,12.30
2023-03-19T18:50:50.235Z,12.30
2023-03-19T18:53:19.098Z,12.20
2023-03-19T18:55:47.986Z,12.10
2023-03-19T18:58:21.138Z,12.10
2023-03-19T19:00:49.777Z,12.20
2023-03-19T19:03:20.788Z,12.20
2023-03-19T19:05:53.937Z,12.10
2023-03-19T19:08:22.556Z,11.90
2023-03-19T19:10:53.759Z,11.80
2023-03-19T19:13:24.798Z,11.60
2023-03-19T19:15:53.856Z,11.50
2023-03-19T19:18:23.177Z,11.30
2023-03-19T19:20:53.953Z,11.20
2023-03-19T19:23:26.577Z,11.10
2023-03-19T19:25:55.972Z,11.00
2023-03-19T19:28:27.821Z,10.90
2023-03-19T19:30:57.861Z,10.80
2023-03-19T19:33:27.944Z,10.70
2023-03-19T19:35:57.520Z,10.60
2023-03-19T19:38:25.414Z,10.70
2023-03-19T19:40:55.737Z,10.80
2023-03-19T19:43:26.071Z,10.80
2023-03-19T19:45:56.712Z,10.90
2023-03-19T19:48:26.224Z,11.00
2023-03-19T19:50:55.778Z,11.00
2023-03-19T19:53:26.401Z,10.80
2023-03-19T19:55:54.766Z,10.70
2023-03-19T19:58:25.664Z,10.60
2023-03-19T20:01:03.391Z,10.60
2023-03-19T20:03:33.980Z,10.50
2023-03-19T20:06:02.930Z,10.40
2023-03-19T20:08:32.991Z,10.40
2023-03-19T20:11:01.137Z,10.40
2023-03-19T20:13:30.897Z,10.30
2023-03-19T20:16:00.670Z,10.20
2023-03-19T20:18:31.836Z,10.10
2023-03-19T20:21:01.162Z,9.90
2023-03-19T20:23:29.496Z,9.70
2023-03-19T20:25:59.715Z,9.50
2023-03-19T20:28:34.352Z,9.30
2023-03-19T20:31:03.428Z,9.20
2023-03-19T20:33:34.440Z,9.30
2023-03-19T20:36:03.258Z,9.20
2023-03-19T20:38:31.279Z,9.00
2023-03-19T20:41:00.457Z,8.90
2023-03-19T20:43:30.736Z,8.80
2023-03-19T20:46:02.097Z,8.80
2023-03-19T20:48:30.903Z,8.80
2023-03-19T20:50:59.485Z,8.70
2023-03-19T20:53:27.893Z,8.70
2023-03-19T20:55:56.349Z,8.60
2023-03-19T20:58:29.543Z,8.50
2023-03-19T21:00:58.852Z,8.50
2023-03-19T21:03:28.867Z,8.40
2023-03-19T21:06:02.008Z,8.40
2023-03-19T21:08:33.259Z,8.40
2023-03-19T21:11:02.273Z,8.40
2023-03-19T21:13:32.768Z,8.50
2023-03-19T21:16:00.726Z,8.50
2023-03-19T21:18:28.732Z,8.50
2023-03-19T21:20:58.860Z,8.40
2023-03-19T21:23:31.366Z,8.50
2023-03-19T21:26:00.281Z,8.50
2023-03-19T21:28:34.537Z,8.50
2023-03-19T21:31:02.637Z,8.50
2023-03-19T21:33:33.011Z,8.50
2023-03-19T21:36:02.114Z,8.50
2023-03-19T21:38:33.005Z,8.50
2023-03-19T21:41:03.445Z,8.50
2023-03-19T21:43:35.759Z,8.50
2023-03-19T21:46:17.362Z,8.60
2023-03-19T21:48:51.291Z,8.60
2023-03-19T21:51:19.179Z,8.70
2023-03-19T21:53:47.591Z,8.70
2023-03-19T21:56:21.903Z,8.80
2023-03-19T21:58:52.418Z,8.80
2023-03-19T22:01:23.814Z,8.90
2023-03-19T22:03:52.564Z,9.00
2023-03-19T22:06:22.188Z,9.00
2023-03-19T22:08:51.045Z,9.00
2023-03-19T22:11:23.868Z,9.00
2023-03-19T22:13:53.559Z,9.00
2023-03-19T22:16:23.912Z,9.10
2023-03-19T22:18:53.299Z,9.10
2023-03-19T22:21:23.184Z,9.10
2023-03-19T22:23:51.988Z,9.20
2023-03-19T22:26:29.472Z,9.20
2023-03-19T22:29:00.144Z,9.00
2023-03-19T22:31:28.712Z,9.00
2023-03-19T22:33:57.058Z,9.00
2023-03-19T22:36:24.980Z,8.90
2023-03-19T22:38:52.810Z,8.80
2023-03-19T22:41:27.899Z,8.80
2023-03-19T22:43:57.527Z,8.80
2023-03-19T22:46:27.653Z,8.80
2023-03-19T22:48:55.897Z,8.80
2023-03-19T22:51:27.214Z,8.80
2023-03-19T22:53:55.607Z,8.90
2023-03-19T22:56:23.986Z,8.90
2023-03-19T22:58:52.334Z,9.10
2023-03-19T23:01:37.432Z,9.00
2023-03-19T23:04:18.960Z,9.00
2023-03-19T23:06:47.441Z,9.10
2023-03-19T23:09:17.550Z,9.10
2023-03-19T23:11:46.279Z,9.30
2023-03-19T23:14:27.927Z,9.30
2023-03-19T23:17:01.057Z,9.40
2023-03-19T23:19:31.209Z,9.50
2023-03-19T23:21:59.929Z,9.60
2023-03-19T23:24:30.433Z,9.70
2023-03-19T23:27:00.037Z,9.70
2023-03-19T23:29:31.406Z,9.80
2023-03-19T23:32:00.793Z,9.80
2023-03-19T23:34:29.399Z,9.80
2023-03-19T23:36:58.008Z,9.90
2023-03-19T23:39:26.076Z,9.90
2023-03-19T23:41:57.727Z,10.00
2023-03-19T23:44:26.352Z,10.00
2023-03-19T23:46:54.909Z,10.00
2023-03-19T23:49:29.516Z,10.10
2023-03-19T23:51:57.905Z,10.30
2023-03-19T23:54:29.952Z,10.40
2023-03-19T23:57:01.658Z,10.50
2023-03-19T23:59:33.549Z,10.40
